Time;durP1;ratioP1;P1;durP2;ratioP2;P2;SDS_P1;SDS_P2;PMS_P1;PMS_P2;Temp;Humidity;BMP_temperature;BMP_pressure;BME280_temperature;BME280_humidity;BME280_pressure;Samples;Min_cycle;Max_cycle;Signal;HPM_P1;HPM_P2
2023/01/11 00:03:27;;;;;;;0.30;0.30;;;;;;;2.11;100.00;97104.84;10301330;28;20133;-56
2023/01/11 00:08:27;;;;;;;0.45;0.45;;;;;;;2.24;100.00;97110.22;10290484;28;20521;-56
2023/01/11 00:13:27;;;;;;;3.30;3.10;;;;;;;2.14;100.00;97094.66;10298598;28;20057;-56
2023/01/11 00:18:26;;;;;;;0.20;0.20;;;;;;;2.35;100.00;97119.00;10290446;28;20100;-56
2023/01/11 00:23:25;;;;;;;4.20;3.83;;;;;;;2.18;100.00;97113.50;10296928;28;20036;-56
2023/01/11 00:28:24;;;;;;;6.00;3.17;;;;;;;2.25;100.00;97123.03;10289723;28;20041;-56
2023/01/11 00:33:23;;;;;;;3.60;1.80;;;;;;;2.22;100.00;97120.41;10297640;28;20116;-57
2023/01/11 00:48:57;;;;;;;1.63;1.52;;;;;;;1.92;100.00;97133.41;10290285;28;20065;-57
2023/01/11 00:53:56;;;;;;;4.97;4.57;;;;;;;1.72;100.00;97121.03;10299370;28;20121;-57
2023/01/11 00:58:55;;;;;;;13.65;6.20;;;;;;;1.66;100.00;97146.44;10288934;28;20137;-57
2023/01/11 01:03:54;;;;;;;3.90;2.83;;;;;;;1.55;100.00;97152.97;10289923;28;20042;-57
2023/01/11 01:08:53;;;;;;;1.60;1.27;;;;;;;1.50;100.00;97155.41;10288429;28;20042;-57
2023/01/11 01:19:11;;;;;;;0.20;0.20;;;;;;;1.47;100.00;97165.59;10285456;28;20124;-54
2023/01/11 01:24:10;;;;;;;1.10;1.10;;;;;;;1.44;100.00;97174.88;10288172;28;20469;-54
2023/01/11 01:29:09;;;;;;;1.10;1.10;;;;;;;1.40;100.00;97173.94;10285450;28;20113;-55
2023/01/11 01:34:08;;;;;;;1.40;1.35;;;;;;;1.36;100.00;97182.34;10287064;28;20033;-56
2023/01/11 01:39:10;;;;;;;1.63;1.63;;;;;;;1.31;100.00;97164.31;10286308;28;20088;-57
2023/01/11 01:45:06;;;;;;;3.70;3.33;;;;;;;1.36;100.00;97171.25;10286252;28;20494;-57
2023/01/11 01:50:11;;;;;;;6.50;1.73;;;;;;;1.41;100.00;97174.78;10278587;28;20124;-56
2023/01/11 01:55:15;;;;;;;0.75;0.73;;;;;;;1.45;100.00;97174.03;10287016;28;20101;-56
2023/01/11 02:00:14;;;;;;;2.38;1.23;;;;;;;1.21;100.00;97162.38;10283848;28;20847;-55
2023/01/11 02:05:15;;;;;;;5.85;5.38;;;;;;;1.19;100.00;97170.81;10286202;28;20117;-55
2023/01/11 02:10:17;;;;;;;10.40;9.60;;;;;;;0.98;100.00;97179.63;10287202;28;20072;-55
2023/01/11 02:15:18;;;;;;;8.20;6.07;;;;;;;0.54;100.00;97184.34;10285385;28;20105;-55
2023/01/11 02:20:25;;;;;;;1.80;1.70;;;;;;;0.32;100.00;97193.09;10283727;28;20061;-55
2023/01/11 02:25:40;;;;;;;2.40;1.70;;;;;;;0.01;100.00;97199.81;10285199;28;20072;-55
2023/01/11 02:31:00;;;;;;;0.40;0.40;;;;;;;0.22;100.00;97203.84;10284307;28;20126;-55
2023/01/11 02:36:37;;;;;;;0.55;0.55;;;;;;;0.46;100.00;97203.72;10284454;28;20451;-55
2023/01/11 02:47:05;;;;;;;0.63;0.63;;;;;;;0.77;100.00;97213.13;10289629;28;20685;-55
2023/01/11 02:52:09;;;;;;;2.58;2.38;;;;;;;0.93;100.00;97228.88;10299307;28;20121;-56
2023/01/11 02:57:10;;;;;;;0.20;0.20;;;;;;;0.97;100.00;97229.00;10284664;28;20053;-55
2023/01/11 03:02:11;;;;;;;9.88;3.28;;;;;;;1.09;100.00;97241.25;10304443;28;20072;-56
2023/01/11 03:07:40;;;;;;;0.20;0.20;;;;;;;1.18;100.00;97233.84;10300301;28;20466;-55
2023/01/11 03:12:54;;;;;;;0.20;0.20;;;;;;;1.18;100.00;97225.28;10304964;28;20077;-55
2023/01/11 03:18:14;;;;;;;4.55;2.53;;;;;;;1.33;100.00;97234.25;10293726;28;20073;-55
2023/01/11 03:23:22;;;;;;;2.10;2.00;;;;;;;1.42;100.00;97232.78;10319282;28;20064;-55
2023/01/11 03:28:37;;;;;;;3.55;2.50;;;;;;;1.37;100.00;97229.25;10291833;28;20137;-55
2023/01/11 03:33:51;;;;;;;0.50;0.50;;;;;;;1.39;100.00;97237.78;10321073;28;20870;-55
2023/01/11 03:39:01;;;;;;;0.55;0.55;;;;;;;1.31;100.00;97232.47;10294518;28;20084;-55
2023/01/11 03:44:05;;;;;;;2.60;2.40;;;;;;;1.20;100.00;97238.97;10319355;28;20061;-55
2023/01/11 03:49:09;;;;;;;3.40;2.30;;;;;;;0.87;100.00;97242.34;10293581;28;20486;-55
2023/01/11 03:54:12;;;;;;;0.50;0.50;;;;;;;0.80;100.00;97250.63;10321487;28;20061;-55
2023/01/11 03:59:11;;;;;;;0.95;0.95;;;;;;;0.75;100.00;97255.63;10293290;28;20076;-55
2023/01/11 04:04:10;;;;;;;0.43;0.43;;;;;;;0.66;100.00;97268.09;10318411;28;20057;-55
2023/01/11 04:09:09;;;;;;;6.07;3.10;;;;;;;0.61;100.00;97264.56;10290834;28;20033;-55
2023/01/11 04:14:08;;;;;;;;;;;;;;;0.79;100.00;97280.44;10306177;28;20092;-56
2023/01/11 04:19:07;;;;;;;2.00;1.65;;;;;;;0.90;100.00;97279.06;10292119;28;19957;-56
2023/01/11 04:24:06;;;;;;;0.20;0.20;;;;;;;0.99;100.00;97281.03;10323525;28;20029;-56
2023/01/11 04:29:05;;;;;;;1.52;1.48;;;;;;;0.95;100.00;97288.56;10292433;28;20072;-56
2023/01/11 04:34:04;;;;;;;;;;;;;;;0.99;100.00;97292.91;10324143;28;20064;-56
2023/01/11 04:39:03;;;;;;;11.48;2.47;;;;;;;1.03;100.00;97308.38;10291869;28;19921;-53
2023/01/11 04:44:02;;;;;;;1.70;1.60;;;;;;;1.12;100.00;97310.34;10324137;28;20069;-56
2023/01/11 04:49:02;;;;;;;1.23;1.23;;;;;;;1.16;100.00;97321.53;10291568;28;20030;-54
2023/01/11 04:54:00;;;;;;;1.58;1.48;;;;;;;1.03;100.00;97305.81;10294707;28;20100;-57
2023/01/11 04:58:59;;;;;;;6.28;3.83;;;;;;;1.04;100.00;97332.25;10291611;28;20105;-54
2023/01/11 05:03:58;;;;;;;4.15;3.92;;;;;;;0.89;100.00;97343.72;10322990;28;20040;-54
2023/01/11 05:08:57;;;;;;;;;;;;;;;1.00;100.00;97335.53;10291167;28;20034;-54
2023/01/11 05:13:58;;;;;;;0.20;0.20;;;;;;;0.95;100.00;97322.63;10287628;28;20277;-54
2023/01/11 05:18:59;;;;;;;2.95;2.75;;;;;;;1.12;100.00;97343.56;10269103;28;20064;-53
2023/01/11 05:23:59;;;;;;;1.27;1.20;;;;;;;1.10;100.00;97343.50;10315270;28;20499;-53
2023/01/11 05:29:01;;;;;;;7.38;6.88;;;;;;;1.16;100.00;97368.38;10284177;28;20475;-54
2023/01/11 05:34:00;;;;;;;1.30;1.20;;;;;;;1.01;100.00;97350.03;10288489;28;21313;-54
2023/01/11 05:38:59;;;;;;;12.15;7.57;;;;;;;4.85;100.00;97374.97;10288678;28;20078;-45
2023/01/11 05:46:16;;;;;;;648.55;204.23;;;;;;;7.06;98.43;97358.50;10372613;27;20962;-47
2023/01/11 05:51:15;;;;;;;60.72;25.20;;;;;;;4.89;92.32;97373.28;10237883;28;20071;-47
2023/01/11 05:56:14;;;;;;;32.50;11.82;;;;;;;3.62;91.92;97395.84;10190259;28;20065;-46
2023/01/11 06:01:14;;;;;;;0.38;0.38;;;;;;;2.37;93.16;97404.97;10275966;28;20044;-50
2023/01/11 06:06:14;;;;;;;1.90;1.73;;;;;;;1.91;94.33;97413.13;10446157;28;20056;-48
2023/01/11 06:11:14;;;;;;;41.80;10.93;;;;;;;1.63;95.50;97401.25;10419466;28;20087;-47
2023/01/11 06:16:14;;;;;;;;;;;;;;;1.39;96.13;97422.75;10424647;28;20481;-50
2023/01/11 06:21:14;;;;;;;31.67;15.48;;;;;;;1.11;96.61;97421.06;10403818;28;19948;-49
2023/01/11 06:26:15;;;;;;;74.63;25.92;;;;;;;1.08;96.89;97433.72;10431150;28;20071;-49
2023/01/11 06:31:14;;;;;;;27.45;19.95;;;;;;;0.71;97.02;97427.47;10445307;28;20068;-50
2023/01/11 06:36:13;;;;;;;;;;;;;;;0.67;97.55;97454.56;10446514;28;20509;-49
2023/01/11 06:41:12;;;;;;;0.80;0.80;;;;;;;0.69;98.20;97457.19;10443003;28;20724;-50
2023/01/11 06:46:14;;;;;;;1.75;1.73;;;;;;;0.75;98.63;97461.63;10450042;28;20080;-49
2023/01/11 06:51:15;;;;;;;35.70;22.05;;;;;;;0.95;99.01;97465.69;10445083;28;20505;-49
2023/01/11 06:56:17;;;;;;;2.17;1.75;;;;;;;1.08;98.69;97477.16;10424254;28;20060;-48
2023/01/11 07:01:17;;;;;;;8.07;3.40;;;;;;;1.02;98.66;97471.88;10412060;28;20144;-48
2023/01/11 07:06:16;;;;;;;22.13;10.25;;;;;;;1.12;98.81;97484.09;10412257;28;20131;-48
2023/01/11 07:11:15;;;;;;;2.70;2.50;;;;;;;1.25;99.30;97499.00;10415200;28;20090;-47
2023/01/11 07:16:16;;;;;;;13.98;10.52;;;;;;;1.24;99.47;97455.50;10411852;28;20090;-48
2023/01/11 07:21:15;;;;;;;3.47;3.17;;;;;;;1.48;99.26;97497.16;10416230;28;20064;-47
2023/01/11 07:26:15;;;;;;;6.93;5.40;;;;;;;1.47;99.86;97492.84;10415946;28;20067;-48
2023/01/11 07:31:14;;;;;;;0.38;0.38;;;;;;;1.72;100.00;97493.59;10404549;28;20489;-49
2023/01/11 07:36:13;;;;;;;45.90;18.73;;;;;;;1.86;99.99;97512.78;10414151;28;20486;-48
2023/01/11 07:46:30;;;;;;;8.07;7.47;;;;;;;1.90;100.00;97460.88;10413961;28;20485;-48
2023/01/11 07:51:28;;;;;;;10.25;9.23;;;;;;;2.36;100.00;97517.59;10413409;28;20498;-49
2023/01/11 07:56:28;;;;;;;70.45;21.23;;;;;;;2.49;100.00;97529.91;10414590;28;20143;-48
2023/01/11 08:01:27;;;;;;;11.98;10.02;;;;;;;2.67;100.00;97539.75;10413812;28;20064;-50
2023/01/11 08:06:26;;;;;;;21.38;17.20;;;;;;;2.79;100.00;97544.34;10413950;28;20068;-49
2023/01/11 08:16:42;;;;;;;37.20;20.55;;;;;;;2.71;99.02;97571.47;10413143;28;20501;-49
2023/01/11 08:21:43;;;;;;;2.80;2.60;;;;;;;2.90;98.73;97581.38;10413262;28;20028;-48
2023/01/11 08:26:42;;;;;;;30.02;16.40;;;;;;;3.07;99.62;97588.63;10411622;28;20068;-48
2023/01/11 08:31:46;;;;;;;30.35;21.70;;;;;;;3.05;99.07;97585.16;10412387;28;20474;-48
2023/01/11 08:36:44;;;;;;;54.45;28.17;;;;;;;3.21;99.00;97587.28;10413199;28;20462;-48
2023/01/11 08:41:43;;;;;;;26.85;14.55;;;;;;;3.42;99.06;97605.78;10399643;28;20412;-50
2023/01/11 08:46:42;;;;;;;21.50;19.60;;;;;;;3.50;98.49;97610.25;10399118;28;20111;-48
2023/01/11 08:51:41;;;;;;;17.92;12.75;;;;;;;3.45;98.31;97610.13;10399695;28;20107;-47
2023/01/11 08:56:40;;;;;;;6.60;5.85;;;;;;;3.44;97.72;97623.75;10406412;28;20040;-51
2023/01/11 09:01:39;;;;;;;1.23;1.23;;;;;;;3.43;96.03;97619.47;10408435;28;20402;-49
2023/01/11 09:06:38;;;;;;;2.25;2.13;;;;;;;3.34;96.58;97625.22;10406009;28;20028;-47
2023/01/11 09:11:56;;;;;;;32.13;16.42;;;;;;;3.30;97.15;97622.56;10409035;28;20040;-50
2023/01/11 09:16:55;;;;;;;20.70;14.02;;;;;;;3.36;96.65;97618.44;10412712;28;20505;-48
2023/01/11 09:21:59;;;;;;;3.40;3.20;;;;;;;3.55;97.89;97618.91;10411316;28;20116;-48
2023/01/11 09:26:59;;;;;;;2.75;2.63;;;;;;;3.65;98.17;97605.47;10413024;28;20067;-49
2023/01/11 09:31:58;;;;;;;11.75;9.52;;;;;;;4.01;98.29;97630.25;10412057;28;20072;-48
2023/01/11 09:36:59;;;;;;;4.88;3.63;;;;;;;4.36;99.75;97612.16;10411814;28;20076;-48
2023/01/11 09:42:14;;;;;;;12.55;6.63;;;;;;;4.61;98.50;97614.41;10402650;28;20072;-49
2023/01/11 09:47:25;;;;;;;2.15;1.95;;;;;;;4.49;95.47;97620.16;10412262;28;20071;-50
2023/01/11 09:52:38;;;;;;;2.83;2.60;;;;;;;4.55;95.78;97632.28;10406731;28;20060;-49
2023/01/11 09:57:46;;;;;;;4.07;2.25;;;;;;;4.57;93.31;97633.19;10412568;28;20718;-49
2023/01/11 10:02:59;;;;;;;4.57;4.20;;;;;;;4.72;95.77;97628.34;10411494;28;20071;-47
2023/01/11 10:08:44;;;;;;;2.38;0.70;;;;;;;4.92;95.29;97633.00;10412264;28;20508;-47
2023/01/11 10:13:59;;;;;;;0.95;0.95;;;;;;;5.25;96.04;97624.22;10320379;28;20104;-49
2023/01/11 10:19:21;;;;;;;2.22;2.13;;;;;;;5.59;96.72;97619.66;10397441;28;20079;-48
2023/01/11 10:24:37;;;;;;;3.00;1.48;;;;;;;5.84;96.28;97620.94;10410579;28;20076;-50
2023/01/11 10:35:28;;;;;;;3.22;2.15;;;;;;;6.42;95.92;97626.03;10416564;28;20813;-49
2023/01/11 10:40:38;;;;;;;11.10;7.38;;;;;;;6.68;94.30;97624.69;10418063;28;20075;-49
2023/01/11 10:46:20;;;;;;;2.90;2.80;;;;;;;6.53;89.68;97634.78;10418319;28;20474;-48
2023/01/11 10:51:37;;;;;;;0.30;0.30;;;;;;;6.34;90.34;97626.78;10417052;28;20062;-49
2023/01/11 10:56:59;;;;;;;9.90;5.70;;;;;;;6.54;88.13;97626.22;10410246;28;20059;-48
2023/01/11 11:02:32;;;;;;;7.07;4.53;;;;;;;6.60;92.42;97639.16;10412836;28;20824;-49
2023/01/11 11:07:40;;;;;;;3.22;2.13;;;;;;;6.79;90.50;97635.09;10412942;28;20068;-47
2023/01/11 11:12:53;;;;;;;9.82;6.07;;;;;;;6.80;88.08;97639.44;10410746;28;20060;-50
2023/01/11 11:17:53;;;;;;;1.48;1.42;;;;;;;6.88;89.04;97642.09;10411670;28;20060;-49
2023/01/11 11:22:55;;;;;;;5.38;2.30;;;;;;;7.23;87.34;97651.06;10414467;28;20109;-48
2023/01/11 11:27:58;;;;;;;6.35;5.85;;;;;;;7.13;82.49;97627.75;10414462;28;20474;-48
2023/01/11 11:33:04;;;;;;;1.60;1.50;;;;;;;7.60;88.18;97648.03;10412851;28;20078;-47
2023/01/11 11:38:04;;;;;;;2.30;2.10;;;;;;;7.65;81.15;97618.81;10414456;28;20513;-51
2023/01/11 11:43:19;;;;;;;1.23;1.23;;;;;;;7.98;82.36;97643.16;10428297;28;20547;-48
2023/01/11 11:48:18;;;;;;;3.45;3.15;;;;;;;8.03;80.76;97636.31;10412326;28;20445;-51
2023/01/11 11:53:43;;;;;;;1.90;1.80;;;;;;;8.42;83.28;97634.84;10415497;28;20084;-49
2023/01/11 11:58:42;;;;;;;23.25;10.43;;;;;;;8.67;79.98;97629.81;10404934;28;20525;-49
2023/01/11 12:03:42;;;;;;;3.28;3.08;;;;;;;8.88;76.95;97629.00;10411751;28;20118;-48
2023/01/11 12:08:41;;;;;;;;;;;;;;;9.02;73.94;97642.00;10414222;28;20064;-49
2023/01/11 12:13:41;;;;;;;7.75;3.85;;;;;;;9.14;68.32;97640.31;10397537;28;20389;-49
2023/01/11 12:18:42;;;;;;;5.68;4.40;;;;;;;8.76;68.59;97637.59;10406429;28;20064;-52
2023/01/11 12:23:41;;;;;;;0.20;0.20;;;;;;;8.00;69.48;97651.81;10398651;28;20131;-48
2023/01/11 12:28:49;;;;;;;1.52;1.42;;;;;;;7.29;69.29;97650.28;10409437;28;20125;-50
2023/01/11 12:34:08;;;;;;;2.28;1.55;;;;;;;7.01;74.68;97633.66;10402375;28;21365;-50
2023/01/11 12:39:10;;;;;;;2.92;2.70;;;;;;;6.72;75.61;97661.66;10407906;28;20075;-47
2023/01/11 12:44:33;;;;;;;2.20;1.85;;;;;;;6.58;77.60;97664.06;10406254;28;20554;-47
2023/01/11 12:49:48;;;;;;;6.22;3.50;;;;;;;6.11;80.21;97678.00;10401737;28;20112;-49
2023/01/11 12:55:00;;;;;;;6.05;5.07;;;;;;;6.05;81.27;97677.91;10408339;28;20072;-50
2023/01/11 13:00:08;;;;;;;1.50;1.42;;;;;;;5.94;81.76;97689.75;10412462;28;20075;-51
2023/01/11 13:05:28;;;;;;;3.92;2.67;;;;;;;5.73;81.55;97682.53;10407861;28;20075;-51
2023/01/11 13:10:38;;;;;;;2.63;0.85;;;;;;;5.90;80.64;97693.97;10405393;28;20060;-49
2023/01/11 13:15:52;;;;;;;2.65;2.08;;;;;;;5.84;81.44;97703.34;10399373;28;20067;-48
2023/01/11 13:20:57;;;;;;;4.82;4.35;;;;;;;5.85;82.30;97695.63;10403447;28;20732;-47
2023/01/11 13:25:57;;;;;;;8.63;4.07;;;;;;;5.76;82.63;97700.59;10398362;28;20115;-48
2023/01/11 13:30:57;;;;;;;0.47;0.47;;;;;;;5.61;82.91;97679.75;10409908;28;20072;-50
2023/01/11 13:36:05;;;;;;;0.80;0.60;;;;;;;5.94;83.29;97721.53;10402373;28;20856;-49
2023/01/11 13:41:27;;;;;;;4.00;3.63;;;;;;;5.98;83.46;97733.63;10408445;28;20068;-49
2023/01/11 13:46:56;;;;;;;3.13;2.05;;;;;;;5.88;83.75;97725.69;10408231;28;20070;-49
2023/01/11 13:51:59;;;;;;;14.73;7.90;;;;;;;5.90;83.91;97731.75;10398825;28;20067;-49
2023/01/11 13:57:05;;;;;;;2.53;2.38;;;;;;;5.62;84.43;97720.97;10406971;28;20064;-49
2023/01/11 14:02:26;;;;;;;2.85;1.33;;;;;;;5.72;84.24;97735.75;10409551;28;20059;-49
2023/01/11 14:07:40;;;;;;;2.30;2.17;;;;;;;5.57;84.08;97744.91;10409163;28;20155;-47
2023/01/11 14:12:46;;;;;;;4.00;2.67;;;;;;;5.21;84.24;97746.78;10412625;28;20111;-47
2023/01/11 14:18:07;;;;;;;5.85;3.83;;;;;;;5.18;85.26;97757.03;10417651;28;20068;-47
2023/01/11 14:23:12;;;;;;;6.40;3.03;;;;;;;5.25;85.46;97748.59;10415940;28;20135;-51
2023/01/11 14:28:27;;;;;;;4.47;3.42;;;;;;;5.21;84.64;97762.22;10405944;28;20071;-49
2023/01/11 14:33:35;;;;;;;3.70;3.50;;;;;;;5.37;84.67;97777.94;10414781;28;20088;-48
2023/01/11 14:38:42;;;;;;;0.20;0.20;;;;;;;5.48;85.01;97761.88;10417169;28;20573;-50
2023/01/11 14:44:26;;;;;;;0.68;0.68;;;;;;;5.29;85.98;97782.97;10416596;28;20084;-48
2023/01/11 14:50:05;;;;;;;1.60;1.50;;;;;;;5.28;86.02;97788.94;10413061;28;20110;-48
2023/01/11 14:55:14;;;;;;;0.10;0.10;;;;;;;5.23;85.07;97788.84;10410460;28;20458;-48
2023/01/11 15:00:19;;;;;;;7.22;5.13;;;;;;;5.27;85.54;97802.63;10403111;28;20099;-48
2023/01/11 15:05:30;;;;;;;1.88;1.77;;;;;;;5.19;86.10;97804.19;10412530;28;20131;-48
2023/01/11 15:10:29;;;;;;;2.33;1.85;;;;;;;5.11;86.20;97817.75;10410595;28;20543;-48
2023/01/11 15:20:51;;;;;;;2.13;1.90;;;;;;;5.00;86.40;97796.09;10408742;28;20123;-49
2023/01/11 15:26:00;;;;;;;7.68;2.58;;;;;;;5.05;86.86;97833.06;10415499;28;20079;-49
2023/01/11 15:31:01;;;;;;;4.35;4.03;;;;;;;5.15;86.26;97828.09;10406226;28;20080;-49
2023/01/11 15:36:02;;;;;;;8.55;3.58;;;;;;;5.00;86.02;97824.38;10412768;28;20063;-49
2023/01/11 15:46:52;;;;;;;;;;;;;;;5.13;86.05;97841.81;10413085;28;20484;-49
2023/01/11 15:52:00;;;;;;;3.63;3.47;;;;;;;5.01;86.08;97846.66;10401360;28;20348;-50
2023/01/11 15:57:28;;;;;;;2.42;1.40;;;;;;;5.08;85.63;97840.81;10409664;28;20060;-48
2023/01/11 16:02:48;;;;;;;4.43;4.03;;;;;;;4.91;85.81;97855.84;10352161;28;20796;-48
2023/01/11 16:07:58;;;;;;;2.55;2.28;;;;;;;4.84;84.90;97859.13;10390486;28;20513;-50
2023/01/11 16:12:59;;;;;;;5.35;3.42;;;;;;;4.65;85.82;97856.97;10411895;28;20079;-49
2023/01/11 16:18:14;;;;;;;1.65;1.55;;;;;;;4.76;85.22;97864.91;10407729;28;20152;-48
2023/01/11 16:23:19;;;;;;;1.38;1.27;;;;;;;4.68;85.51;97865.59;9485968;28;10000857;-50
2023/01/11 16:28:18;;;;;;;3.22;2.90;;;;;;;4.52;85.55;97876.34;10371752;28;20178;-50
2023/01/11 16:33:23;;;;;;;3.03;1.58;;;;;;;4.50;86.21;97881.47;10370230;28;20065;-48
2023/01/11 16:38:22;;;;;;;2.38;2.17;;;;;;;4.43;86.11;97882.13;10369905;28;20075;-48
2023/01/11 16:43:28;;;;;;;1.17;1.13;;;;;;;4.53;86.02;97880.66;10368475;28;20073;-50
2023/01/11 16:48:29;;;;;;;0.95;0.95;;;;;;;4.45;85.30;97869.31;10356715;28;20112;-48
2023/01/11 16:53:29;;;;;;;0.25;0.25;;;;;;;4.55;86.36;97893.53;10365787;28;20515;-48
2023/01/11 16:58:31;;;;;;;11.02;7.00;;;;;;;4.47;86.34;97899.34;10362618;28;20127;-48
2023/01/11 17:03:33;;;;;;;3.72;2.55;;;;;;;4.57;86.39;97902.16;10365359;28;20108;-49
2023/01/11 17:08:35;;;;;;;7.28;3.92;;;;;;;4.49;87.10;97907.09;10368531;28;20064;-50
2023/01/11 17:13:52;;;;;;;0.10;0.10;;;;;;;4.46;87.71;97914.75;10369152;28;20103;-47
2023/01/11 17:18:51;;;;;;;2.72;1.98;;;;;;;4.43;88.10;97902.69;10368466;28;20075;-48
2023/01/11 17:23:53;;;;;;;37.85;21.23;;;;;;;5.02;90.75;97930.72;10368740;28;20071;-61
2023/01/11 17:28:56;;;;;;;115.97;109.28;;;;;;;5.19;89.52;97930.25;10381146;28;20533;-61
2023/01/11 17:34:09;;;;;;;120.97;112.25;;;;;;;4.77;89.27;97918.94;10367283;28;20064;-60
2023/01/11 17:39:53;;;;;;;75.80;35.47;;;;;;;4.44;90.26;97914.69;10366894;28;20060;-60
2023/01/11 17:50:16;;;;;;;0.50;0.50;;;;;;;4.26;92.40;97932.19;10356965;28;20069;-60
2023/01/11 17:55:21;;;;;;;1.00;1.00;;;;;;;4.24;92.75;97934.75;10382657;28;20087;-60
2023/01/11 18:00:26;;;;;;;0.10;0.10;;;;;;;4.33;92.84;97940.94;10368758;28;20497;-60
2023/01/11 18:05:27;;;;;;;13.07;9.40;;;;;;;4.20;93.39;97935.47;10366933;28;20433;-60
2023/01/11 18:10:29;;;;;;;2.60;1.75;;;;;;;3.96;94.05;97927.94;10367892;28;20069;-60
2023/01/11 18:15:32;;;;;;;2.28;1.08;;;;;;;4.02;94.22;97937.53;10367553;28;20351;-60
2023/01/11 18:20:36;;;;;;;1.15;0.60;;;;;;;3.89;94.50;97948.28;10366434;28;20069;-60
2023/01/11 18:25:36;;;;;;;1.63;1.33;;;;;;;3.72;94.90;97934.97;10363495;28;20506;-60
2023/01/11 18:30:36;;;;;;;;;;;;;;;3.76;95.01;97953.06;10367183;28;20072;-60
2023/01/11 18:35:44;;;;;;;0.80;0.80;;;;;;;3.68;94.87;97948.53;10362307;28;20432;-60
2023/01/11 18:40:44;;;;;;;0.40;0.30;;;;;;;3.67;95.42;97957.94;10368159;28;20072;-60
2023/01/11 18:45:43;;;;;;;0.10;0.10;;;;;;;3.90;95.24;97966.31;10363495;28;20136;-60
2023/01/11 18:50:44;;;;;;;0.30;0.10;;;;;;;4.00;94.86;97960.59;10367951;28;20032;-61
2023/01/11 18:55:44;;;;;;;0.30;0.30;;;;;;;4.04;94.94;97964.13;10373938;28;20525;-61
2023/01/11 19:00:43;;;;;;;0.00;0.00;;;;;;;4.02;94.23;97942.69;10372855;28;20079;-62
2023/01/11 19:05:42;;;;;;;1.08;0.98;;;;;;;3.93;93.81;97957.81;10367246;28;20078;-61
2023/01/11 19:10:41;;;;;;;1.15;0.70;;;;;;;3.80;94.21;97949.78;10373874;28;20044;-61
2023/01/11 19:15:40;;;;;;;0.25;0.25;;;;;;;3.96;94.17;97971.59;10389160;28;20076;-61
2023/01/11 19:20:39;;;;;;;0.73;0.32;;;;;;;3.88;93.82;97965.38;10373309;28;20048;-61
2023/01/11 19:25:38;;;;;;;0.10;0.10;;;;;;;3.94;93.15;97974.94;10371000;28;20589;-61
2023/01/11 19:30:38;;;;;;;0.00;0.00;;;;;;;3.84;93.28;97974.69;10370871;28;20506;-61
2023/01/11 19:35:38;;;;;;;;;;;;;;;4.08;92.54;97991.66;10372594;28;20076;-61
2023/01/11 19:40:37;;;;;;;0.00;0.00;;;;;;;4.04;93.07;97994.94;10372659;28;19960;-61
2023/01/11 19:45:36;;;;;;;0.10;0.10;;;;;;;4.10;92.94;97991.66;10372431;28;20125;-61
2023/01/11 19:50:35;;;;;;;0.45;0.45;;;;;;;4.02;93.19;97991.47;10367987;28;20069;-61
2023/01/11 19:55:34;;;;;;;0.00;0.00;;;;;;;3.99;92.85;97986.25;10371696;28;20051;-61
2023/01/11 20:00:36;;;;;;;0.17;0.17;;;;;;;4.02;92.51;97986.31;10372687;28;20047;-61
2023/01/11 20:05:35;;;;;;;0.17;0.17;;;;;;;4.07;92.59;97997.59;10370812;28;20124;-61
2023/01/11 20:10:34;;;;;;;0.00;0.00;;;;;;;3.91;92.56;97982.56;10371799;28;20033;-61
2023/01/11 20:15:33;;;;;;;0.00;0.00;;;;;;;4.06;92.70;98006.16;10368554;28;20521;-61
2023/01/11 20:20:32;;;;;;;0.00;0.00;;;;;;;4.01;92.57;97984.56;10369881;28;20072;-61
2023/01/11 20:25:31;;;;;;;2.72;0.47;;;;;;;4.05;92.06;97981.28;10344907;28;20040;-61
2023/01/11 20:30:30;;;;;;;;;;;;;;;4.12;91.74;98010.56;10381294;28;20522;-61
2023/01/11 20:43:39;;;;;;;0.00;0.00;;;;;;;9.72;100.00;97836.53;10112199;27;20129;-88
2023/01/11 20:48:38;;;;;;;0.00;0.00;;;;;;;11.20;100.00;97740.56;9734346;28;20054;-91
2023/01/11 20:53:37;;;;;;;9.38;8.48;;;;;;;14.25;100.00;97846.38;10304744;28;20532;-83
2023/01/11 20:58:36;;;;;;;8.88;8.02;;;;;;;15.68;92.67;97839.59;10196976;28;20266;-84
2023/01/11 21:12:50;;;;;;;5.97;5.37;;;;;;;17.43;91.39;97933.50;10011590;27;20138;-83
2023/01/11 21:21:51;;;;;;;1.77;1.67;;;;;;;17.28;89.15;97812.31;10158206;27;20490;-83
2023/01/11 21:47:16;;;;;;;;;;;;;;;;;;;;;
2023/01/11 22:01:10;;;;;;;1.20;1.10;;;;;;;17.25;52.58;97302.81;10013069;27;20682;-96
2023/01/11 22:08:13;;;;;;;1.52;1.10;;;;;;;20.62;48.85;97872.38;10329193;27;20163;-86
2023/01/11 22:13:12;;;;;;;1.30;1.20;;;;;;;20.22;48.67;97848.41;10220804;28;20151;-87
2023/01/11 22:18:13;;;;;;;1.40;1.30;;;;;;;20.38;48.96;97909.31;10409026;28;20041;-86
2023/01/11 22:23:12;;;;;;;2.17;1.20;;;;;;;20.37;49.11;97933.06;10394589;28;20065;-86
2023/01/11 22:28:11;;;;;;;2.58;1.23;;;;;;;18.85;49.46;97726.16;10380861;28;20036;-86
2023/01/11 22:33:10;;;;;;;1.40;1.30;;;;;;;18.53;50.10;97693.94;10406345;28;20070;-86
2023/01/11 22:38:09;;;;;;;1.10;1.10;;;;;;;18.66;50.32;97733.78;10402564;28;20073;-85
2023/01/11 22:43:08;;;;;;;1.48;1.38;;;;;;;18.83;50.42;97780.59;10395772;28;20064;-85
2023/01/11 22:48:07;;;;;;;2.88;1.40;;;;;;;17.21;50.79;97566.03;10366048;28;20080;-86
2023/01/11 22:53:06;;;;;;;2.92;1.60;;;;;;;18.29;50.70;97721.00;10400828;28;20035;-86
2023/01/11 22:58:04;;;;;;;1.35;1.10;;;;;;;17.84;51.03;97666.44;10403310;28;20048;-86
2023/01/11 23:03:04;;;;;;;2.90;1.27;;;;;;;18.33;51.08;97759.41;10401927;28;20036;-86
2023/01/11 23:08:04;;;;;;;2.05;1.50;;;;;;;19.06;51.51;97886.75;10407371;28;20072;-86
2023/01/11 23:18:20;;;;;;;2.35;1.38;;;;;;;18.51;51.65;97814.00;10371844;28;20689;-86
2023/01/11 23:23:19;;;;;;;1.30;1.20;;;;;;;17.98;51.77;97724.63;10358474;28;20497;-86
2023/01/11 23:28:18;;;;;;;1.30;1.20;;;;;;;18.07;51.85;97765.50;10375394;28;20332;-86
2023/01/11 23:33:17;;;;;;;1.00;1.00;;;;;;;19.10;51.94;97941.00;10339866;28;20086;-86
2023/01/11 23:38:16;;;;;;;1.35;1.10;;;;;;;17.80;52.06;97709.44;10386998;28;20047;-86
2023/01/11 23:43:15;;;;;;;2.25;1.23;;;;;;;18.12;52.27;97784.59;10379417;28;20144;-87
2023/01/11 23:48:14;;;;;;;1.38;1.27;;;;;;;17.83;52.34;97748.72;10378577;28;20056;-87
2023/01/11 23:53:13;;;;;;;1.40;1.27;;;;;;;16.19;52.37;97468.56;10343672;28;20036;-86
2023/01/11 23:58:12;;;;;;;1.15;1.10;;;;;;;18.19;52.68;97807.97;10368089;28;20482;-86
